createdAt,value
2019-03-28T00:01:52.359Z,10.60
2019-03-28T00:04:22.953Z,11.90
2019-03-28T00:06:53.515Z,11.43
2019-03-28T00:09:24.263Z,10.45
2019-03-28T00:11:54.815Z,10.82
2019-03-28T00:14:25.725Z,10.30
2019-03-28T00:16:56.258Z,11.43
2019-03-28T00:19:26.919Z,11.00
2019-03-28T00:21:57.557Z,10.38
2019-03-28T00:24:32.220Z,10.70
2019-03-28T00:27:02.856Z,10.50
2019-03-28T00:29:33.465Z,10.98
2019-03-28T00:32:04.014Z,10.63
2019-03-28T00:34:35.182Z,11.33
2019-03-28T00:37:07.650Z,11.20
2019-03-28T00:39:38.055Z,10.63
2019-03-28T00:42:08.599Z,11.70
2019-03-28T00:44:39.187Z,10.53
2019-03-28T00:47:11.096Z,10.68
2019-03-28T00:49:41.875Z,10.93
2019-03-28T00:52:12.524Z,10.50
2019-03-28T00:54:44.284Z,11.18
2019-03-28T00:57:14.827Z,10.80
2019-03-28T00:59:45.396Z,11.30
2019-03-28T01:02:17.004Z,11.15
2019-03-28T01:04:47.662Z,11.83
2019-03-28T01:07:18.272Z,10.80
2019-03-28T01:09:48.855Z,10.40
2019-03-28T01:12:19.406Z,10.80
2019-03-28T01:14:49.963Z,10.38
2019-03-28T01:17:20.483Z,11.22
2019-03-28T01:19:51.042Z,10.43
2019-03-28T01:22:21.562Z,10.25
2019-03-28T01:24:52.156Z,10.40
2019-03-28T01:27:22.715Z,10.65
2019-03-28T01:29:53.258Z,11.50
2019-03-28T01:32:23.767Z,11.15
2019-03-28T01:34:54.316Z,10.55
2019-03-28T01:37:24.847Z,11.45
2019-03-28T01:39:55.432Z,11.08
2019-03-28T01:42:27.166Z,10.05
2019-03-28T01:44:57.895Z,11.48
2019-03-28T01:47:29.502Z,10.10
2019-03-28T01:50:00.407Z,10.15
2019-03-28T01:52:30.919Z,10.50
2019-03-28T01:55:01.464Z,10.75
2019-03-28T01:57:32.132Z,9.70
2019-03-28T02:00:02.681Z,9.95
2019-03-28T02:02:33.391Z,10.68
2019-03-28T02:05:04.290Z,10.80
2019-03-28T02:07:34.831Z,10.48
2019-03-28T02:10:06.782Z,11.45
2019-03-28T02:12:37.327Z,10.45
2019-03-28T02:15:09.218Z,10.78
2019-03-28T02:17:39.846Z,9.78
2019-03-28T02:20:11.345Z,10.90
2019-03-28T02:22:41.955Z,11.08
2019-03-28T02:25:12.642Z,10.55
2019-03-28T02:27:43.196Z,10.85
2019-03-28T02:30:14.103Z,10.78
2019-03-28T02:32:44.654Z,10.65
2019-03-28T02:35:15.236Z,10.45
2019-03-28T02:37:45.792Z,11.48
2019-03-28T02:40:16.863Z,10.88
2019-03-28T02:42:47.688Z,11.38
2019-03-28T02:45:18.276Z,11.10
2019-03-28T02:47:48.833Z,11.93
2019-03-28T02:50:19.422Z,11.28
2019-03-28T02:52:50.015Z,12.40
2019-03-28T02:55:20.702Z,11.80
2019-03-28T02:57:51.242Z,12.18
2019-03-28T03:00:21.853Z,11.35
2019-03-28T03:02:52.471Z,11.10
2019-03-28T03:05:23.023Z,11.43
2019-03-28T03:07:53.555Z,11.12
2019-03-28T03:10:24.146Z,10.90
2019-03-28T03:12:54.755Z,11.05
2019-03-28T03:15:25.319Z,11.12
2019-03-28T03:17:55.851Z,10.88
2019-03-28T03:20:26.407Z,11.28
2019-03-28T03:22:56.935Z,10.95
2019-03-28T03:25:27.499Z,11.20
2019-03-28T03:27:59.312Z,11.08
2019-03-28T03:30:31.715Z,11.33
2019-03-28T03:33:02.465Z,11.40
2019-03-28T03:35:33.039Z,12.18
2019-03-28T03:38:04.561Z,11.10
2019-03-28T03:40:35.273Z,10.78
2019-03-28T03:43:05.937Z,11.08
2019-03-28T03:45:36.506Z,11.38
2019-03-28T03:48:07.072Z,11.43
2019-03-28T03:50:37.739Z,10.53
2019-03-28T03:53:08.293Z,11.60
2019-03-28T03:55:38.879Z,11.70
2019-03-28T03:58:16.272Z,10.65
2019-03-28T04:00:41.771Z,11.12
2019-03-28T04:03:12.385Z,11.65
2019-03-28T04:05:42.954Z,11.53
2019-03-28T04:08:13.565Z,10.82
2019-03-28T04:10:44.174Z,10.60
2019-03-28T04:13:14.709Z,11.12
2019-03-28T04:15:45.415Z,10.08
2019-03-28T04:18:15.988Z,10.40
2019-03-28T04:20:46.551Z,10.85
2019-03-28T04:23:17.106Z,10.85
2019-03-28T04:25:47.975Z,10.85
2019-03-28T04:28:30.888Z,10.58
2019-03-28T04:30:50.798Z,11.60
2019-03-28T04:33:21.326Z,10.82
2019-03-28T04:35:51.907Z,11.08
2019-03-28T04:38:22.463Z,11.55
2019-03-28T04:40:53.023Z,10.82
2019-03-28T04:43:23.572Z,10.00
2019-03-28T04:45:54.223Z,11.15
2019-03-28T04:48:24.774Z,10.70
2019-03-28T04:50:56.417Z,11.30
2019-03-28T04:53:29.537Z,21.57
2019-03-28T04:55:59.234Z,22.17
2019-03-28T04:58:29.779Z,27.48
2019-03-28T05:01:00.343Z,15.08
2019-03-28T05:03:30.874Z,12.50
2019-03-28T05:06:01.451Z,12.00
2019-03-28T05:08:32.104Z,11.60
2019-03-28T05:11:03.863Z,11.00
2019-03-28T05:13:34.398Z,10.75
2019-03-28T05:16:05.059Z,11.50
2019-03-28T05:18:35.594Z,11.53
2019-03-28T05:21:06.344Z,10.98
2019-03-28T05:23:37.179Z,11.10
2019-03-28T05:26:07.774Z,10.58
2019-03-28T05:28:38.310Z,10.75
2019-03-28T05:31:08.891Z,11.30
2019-03-28T05:33:39.438Z,10.72
2019-03-28T05:36:10.008Z,11.30
2019-03-28T05:38:40.550Z,11.63
2019-03-28T05:41:11.148Z,10.78
2019-03-28T05:43:41.675Z,11.28
2019-03-28T05:46:12.264Z,11.10
2019-03-28T05:48:42.819Z,10.93
2019-03-28T05:51:13.405Z,12.30
2019-03-28T05:53:44.185Z,11.73
2019-03-28T05:56:14.920Z,13.03
2019-03-28T05:58:45.459Z,11.93
2019-03-28T06:01:16.045Z,11.88
2019-03-28T06:03:46.660Z,11.83
2019-03-28T06:06:17.235Z,11.88
2019-03-28T06:08:47.785Z,11.50
2019-03-28T06:11:18.344Z,11.57
2019-03-28T06:13:48.892Z,11.45
2019-03-28T06:16:19.451Z,12.47
2019-03-28T06:18:50.004Z,12.23
2019-03-28T06:21:21.399Z,11.95
2019-03-28T06:23:52.076Z,11.95
2019-03-28T06:26:22.668Z,11.85
2019-03-28T06:28:53.203Z,11.57
2019-03-28T06:31:23.782Z,11.80
2019-03-28T06:33:54.327Z,11.73
2019-03-28T06:36:26.709Z,11.45
2019-03-28T06:38:57.569Z,12.20
2019-03-28T06:41:28.121Z,12.28
2019-03-28T06:43:58.662Z,11.28
2019-03-28T06:46:29.223Z,12.05
2019-03-28T06:48:59.859Z,12.20
2019-03-28T06:51:30.431Z,12.00
2019-03-28T06:54:00.983Z,11.97
2019-03-28T06:56:31.553Z,12.25
2019-03-28T06:59:02.100Z,11.93
2019-03-28T07:01:32.674Z,12.98
2019-03-28T07:04:03.222Z,12.03
2019-03-28T07:06:35.334Z,13.20
2019-03-28T07:09:08.413Z,13.03
2019-03-28T07:11:38.999Z,13.98
2019-03-28T07:14:09.546Z,14.38
2019-03-28T07:16:40.118Z,14.15
2019-03-28T07:19:10.702Z,13.08
2019-03-28T07:21:41.269Z,13.98
2019-03-28T07:24:11.800Z,13.62
2019-03-28T07:26:42.471Z,14.30
2019-03-28T07:29:13.196Z,14.45
2019-03-28T07:31:43.755Z,16.05
2019-03-28T07:34:14.293Z,15.15
2019-03-28T07:36:44.898Z,16.12
2019-03-28T07:39:23.755Z,17.50
2019-03-28T07:41:54.455Z,17.37
2019-03-28T07:44:25.360Z,18.23
2019-03-28T07:46:56.140Z,17.60
2019-03-28T07:49:26.697Z,17.17
2019-03-28T07:51:57.274Z,17.90
2019-03-28T07:54:27.871Z,18.00
2019-03-28T07:56:58.478Z,17.67
2019-03-28T07:59:29.054Z,18.75
2019-03-28T08:01:59.638Z,17.85
2019-03-28T08:04:30.238Z,18.48
2019-03-28T08:07:01.072Z,18.57
2019-03-28T08:09:36.914Z,18.92
2019-03-28T08:12:04.760Z,18.45
2019-03-28T08:14:35.700Z,19.57
2019-03-28T08:17:06.271Z,18.77
2019-03-28T08:19:37.971Z,19.00
2019-03-28T08:22:09.164Z,19.32
2019-03-28T08:24:39.875Z,17.77
2019-03-28T08:27:10.473Z,18.98
2019-03-28T08:29:41.078Z,17.92
2019-03-28T08:32:15.315Z,19.07
2019-03-28T08:34:45.856Z,19.67
2019-03-28T08:37:16.458Z,19.40
2019-03-28T08:39:48.083Z,19.05
2019-03-28T08:42:19.584Z,19.02
2019-03-28T08:44:50.486Z,20.15
2019-03-28T08:47:22.039Z,20.48
2019-03-28T08:49:52.602Z,18.92
2019-03-28T08:52:24.242Z,19.17
2019-03-28T08:54:54.828Z,18.77
2019-03-28T08:57:25.460Z,17.92
2019-03-28T08:59:56.002Z,19.07
2019-03-28T09:02:26.574Z,19.05
2019-03-28T09:04:57.158Z,19.10
2019-03-28T09:07:27.859Z,19.60
2019-03-28T09:09:58.431Z,19.23
2019-03-28T09:12:29.064Z,19.48
2019-03-28T09:14:59.635Z,19.87
2019-03-28T09:17:30.267Z,21.55
2019-03-28T09:20:00.919Z,21.65
2019-03-28T09:22:31.591Z,20.65
2019-03-28T09:25:02.220Z,18.87
2019-03-28T09:27:32.820Z,20.82
2019-03-28T09:30:03.398Z,18.17
2019-03-28T09:32:35.249Z,19.45
2019-03-28T09:35:06.860Z,19.35
2019-03-28T09:37:38.491Z,19.35
2019-03-28T09:40:09.066Z,18.90
2019-03-28T09:42:39.646Z,18.60
2019-03-28T09:45:10.303Z,19.45
2019-03-28T09:47:40.917Z,19.12
2019-03-28T09:50:11.723Z,19.70
2019-03-28T09:52:42.411Z,19.25
2019-03-28T09:55:13.046Z,17.82
2019-03-28T09:57:43.708Z,19.10
2019-03-28T10:00:14.944Z,20.37
2019-03-28T10:02:45.639Z,19.20
2019-03-28T10:05:16.236Z,20.72
2019-03-28T10:07:46.916Z,18.85
2019-03-28T10:10:17.635Z,20.27
2019-03-28T10:12:48.315Z,19.70
2019-03-28T10:15:18.955Z,18.17
2019-03-28T10:17:49.662Z,19.17
2019-03-28T10:20:20.212Z,17.65
2019-03-28T10:22:50.824Z,18.40
2019-03-28T10:25:21.574Z,18.92
2019-03-28T10:27:52.368Z,16.70
2019-03-28T10:30:40.682Z,18.35
2019-03-28T10:33:11.679Z,18.15
2019-03-28T10:35:42.244Z,18.00
2019-03-28T10:38:12.855Z,16.95
2019-03-28T10:40:43.414Z,17.48
2019-03-28T10:43:14.042Z,16.48
2019-03-28T10:45:44.681Z,15.90
2019-03-28T10:48:15.316Z,17.15
2019-03-28T10:50:46.869Z,16.87
2019-03-28T10:53:17.701Z,16.50
2019-03-28T10:55:48.280Z,16.10
2019-03-28T10:58:19.650Z,15.10
2019-03-28T11:00:50.407Z,15.18
2019-03-28T11:03:21.086Z,14.35
2019-03-28T11:05:53.075Z,12.80
2019-03-28T11:08:23.652Z,15.20
2019-03-28T11:10:55.205Z,12.90
2019-03-28T11:13:25.797Z,10.60
2019-03-28T11:15:56.359Z,10.63
2019-03-28T11:18:26.957Z,10.72
2019-03-28T11:20:57.504Z,9.75
2019-03-28T11:23:28.085Z,8.83
2019-03-28T11:25:58.647Z,7.75
2019-03-28T11:28:29.233Z,6.87
2019-03-28T11:30:59.773Z,7.47
2019-03-28T11:33:30.407Z,8.88
2019-03-28T11:36:00.960Z,9.60
2019-03-28T11:38:31.629Z,10.45
2019-03-28T11:41:02.195Z,8.43
2019-03-28T11:43:33.142Z,9.25
2019-03-28T11:46:03.897Z,8.13
2019-03-28T11:48:34.503Z,8.05
2019-03-28T11:51:05.064Z,7.40
2019-03-28T11:53:35.661Z,6.97
2019-03-28T11:56:06.218Z,6.65
2019-03-28T11:58:36.823Z,6.20
2019-03-28T12:01:07.457Z,5.75
2019-03-28T12:03:38.043Z,5.75
2019-03-28T12:06:08.616Z,7.30
2019-03-28T12:08:39.218Z,7.50
2019-03-28T12:11:09.796Z,7.00
2019-03-28T12:13:45.007Z,6.80
2019-03-28T12:16:13.619Z,7.53
2019-03-28T12:18:44.279Z,6.92
2019-03-28T12:21:15.904Z,6.10
2019-03-28T12:23:46.496Z,6.17
2019-03-28T12:26:18.086Z,5.70
2019-03-28T12:28:49.375Z,4.97
2019-03-28T12:31:19.927Z,6.42
2019-03-28T12:33:50.526Z,11.93
2019-03-28T12:36:21.081Z,5.25
2019-03-28T12:38:51.680Z,5.28
2019-03-28T12:41:22.304Z,4.90
2019-03-28T12:43:52.892Z,5.05
2019-03-28T12:46:25.642Z,4.47
2019-03-28T12:48:56.015Z,5.15
2019-03-28T12:51:26.743Z,4.83
2019-03-28T12:53:57.355Z,5.03
2019-03-28T12:56:27.957Z,5.45
2019-03-28T12:58:58.560Z,5.15
2019-03-28T13:01:29.122Z,5.62
2019-03-28T13:03:59.724Z,5.40
2019-03-28T13:06:30.279Z,4.47
2019-03-28T13:09:00.999Z,4.20
2019-03-28T13:11:33.174Z,4.42
2019-03-28T13:14:03.766Z,4.22
2019-03-28T13:16:34.343Z,4.70
2019-03-28T13:19:04.926Z,4.70
2019-03-28T13:21:35.509Z,4.87
2019-03-28T13:24:07.859Z,4.35
2019-03-28T13:26:38.481Z,5.28
2019-03-28T13:29:09.095Z,4.50
2019-03-28T13:31:39.687Z,5.00
2019-03-28T13:34:10.282Z,5.05
2019-03-28T13:36:40.842Z,4.60
2019-03-28T13:39:11.434Z,5.67
2019-03-28T13:41:44.358Z,5.55
2019-03-28T13:44:14.282Z,5.78
2019-03-28T13:46:44.840Z,5.92
2019-03-28T13:49:15.450Z,5.62
2019-03-28T13:51:46.045Z,5.50
2019-03-28T13:54:16.641Z,4.60
2019-03-28T13:56:47.328Z,4.45
2019-03-28T13:59:18.000Z,4.65
2019-03-28T14:01:48.549Z,5.87
2019-03-28T14:04:19.154Z,6.05
2019-03-28T14:06:49.741Z,5.45
2019-03-28T14:09:23.128Z,5.22
2019-03-28T14:11:52.647Z,5.15
2019-03-28T14:14:23.250Z,5.53
2019-03-28T14:16:53.815Z,5.78
2019-03-28T14:19:24.415Z,5.72
2019-03-28T14:21:55.069Z,6.03
2019-03-28T14:24:25.747Z,5.20
2019-03-28T14:26:56.326Z,5.22
2019-03-28T14:29:29.746Z,5.58
2019-03-28T14:32:00.035Z,5.25
2019-03-28T14:34:30.746Z,4.85
2019-03-28T14:37:01.379Z,5.17
2019-03-28T14:39:32.023Z,4.85
2019-03-28T14:42:02.578Z,5.53
2019-03-28T14:44:33.175Z,6.17
2019-03-28T14:47:03.707Z,5.47
2019-03-28T14:49:34.325Z,4.87
2019-03-28T14:52:04.940Z,4.55
2019-03-28T14:54:35.534Z,5.30
2019-03-28T14:57:06.145Z,9.65
2019-03-28T14:59:38.150Z,5.53
2019-03-28T15:02:08.788Z,5.50
2019-03-28T15:04:39.606Z,6.50
2019-03-28T15:07:10.250Z,6.08
2019-03-28T15:09:47.198Z,5.65
2019-03-28T15:12:17.766Z,5.97
2019-03-28T15:14:48.376Z,5.35
2019-03-28T15:17:19.052Z,6.15
2019-03-28T15:19:49.701Z,6.08
2019-03-28T15:22:20.318Z,6.65
2019-03-28T15:24:50.919Z,6.30
2019-03-28T15:27:22.484Z,6.85
2019-03-28T15:29:53.094Z,5.95
2019-03-28T15:32:23.762Z,7.00
2019-03-28T15:34:55.023Z,6.28
2019-03-28T15:37:25.635Z,7.15
2019-03-28T15:39:56.269Z,8.20
2019-03-28T15:42:28.119Z,6.47
2019-03-28T15:44:58.799Z,6.40
2019-03-28T15:47:29.356Z,5.87
2019-03-28T15:49:59.970Z,8.00
2019-03-28T15:52:31.640Z,6.33
2019-03-28T15:55:02.455Z,7.20
2019-03-28T15:57:33.091Z,6.10
2019-03-28T16:00:03.849Z,5.67
2019-03-28T16:02:34.465Z,6.33
2019-03-28T16:05:05.418Z,6.62
2019-03-28T16:07:36.011Z,5.90
2019-03-28T16:10:07.698Z,5.78
2019-03-28T16:12:38.391Z,6.40
2019-03-28T16:15:09.694Z,7.20
2019-03-28T16:17:40.258Z,5.62
2019-03-28T16:20:11.570Z,7.05
2019-03-28T16:22:42.148Z,6.30
2019-03-28T16:25:12.851Z,6.45
2019-03-28T16:27:43.419Z,6.05
2019-03-28T16:30:14.636Z,5.75
2019-03-28T16:32:45.224Z,6.35
2019-03-28T16:35:15.876Z,6.58
2019-03-28T16:37:46.436Z,12.15
2019-03-28T16:40:17.099Z,7.72
2019-03-28T16:42:47.689Z,6.15
2019-03-28T16:45:19.357Z,6.67
2019-03-28T16:47:49.956Z,6.47
2019-03-28T16:50:20.543Z,6.95
2019-03-28T16:52:51.152Z,6.12
2019-03-28T16:55:26.443Z,6.05
2019-03-28T16:57:54.138Z,6.72
2019-03-28T17:00:45.498Z,5.65
2019-03-28T17:03:16.046Z,6.45
2019-03-28T17:05:47.238Z,6.10
2019-03-28T17:08:18.724Z,6.60
2019-03-28T17:10:54.092Z,6.65
2019-03-28T17:13:24.842Z,6.53
2019-03-28T17:15:57.031Z,6.45
2019-03-28T17:18:27.755Z,6.58
2019-03-28T17:20:58.334Z,7.67
2019-03-28T17:23:28.890Z,8.90
2019-03-28T17:25:59.765Z,6.83
2019-03-28T17:28:30.303Z,7.12
2019-03-28T17:31:01.191Z,6.85
2019-03-28T17:33:32.037Z,6.95
2019-03-28T17:36:02.927Z,7.53
2019-03-28T17:38:33.563Z,6.90
2019-03-28T17:41:06.570Z,7.65
2019-03-28T17:43:36.758Z,7.67
2019-03-28T17:46:07.436Z,6.22
2019-03-28T17:48:38.079Z,7.15
2019-03-28T17:51:09.550Z,7.05
2019-03-28T17:53:40.213Z,7.15
2019-03-28T17:56:10.792Z,8.43
2019-03-28T17:58:41.344Z,7.83
2019-03-28T18:01:12.031Z,8.50
2019-03-28T18:03:42.577Z,8.20
2019-03-28T18:06:13.175Z,9.10
2019-03-28T18:08:43.828Z,8.60
2019-03-28T18:11:14.436Z,8.45
2019-03-28T18:13:44.996Z,8.50
2019-03-28T18:16:15.602Z,9.50
2019-03-28T18:18:46.219Z,9.30
2019-03-28T18:21:16.811Z,9.33
2019-03-28T18:23:48.461Z,15.55
2019-03-28T18:26:19.808Z,9.60
2019-03-28T18:28:50.376Z,10.45
2019-03-28T18:31:21.004Z,10.08
2019-03-28T18:33:51.562Z,9.63
2019-03-28T18:36:22.148Z,9.45
2019-03-28T18:38:52.787Z,9.45
2019-03-28T18:41:23.532Z,9.15
2019-03-28T18:43:55.172Z,10.10
2019-03-28T18:46:26.207Z,9.85
2019-03-28T18:48:58.203Z,9.98
2019-03-28T18:51:28.798Z,10.40
2019-03-28T18:53:59.367Z,9.60
2019-03-28T18:56:29.992Z,10.28
2019-03-28T18:59:00.557Z,9.88
2019-03-28T19:01:31.150Z,11.08
2019-03-28T19:04:01.716Z,10.80
2019-03-28T19:06:32.315Z,9.98
2019-03-28T19:09:02.875Z,12.00
2019-03-28T19:11:33.760Z,11.22
2019-03-28T19:14:04.485Z,10.65
2019-03-28T19:16:35.817Z,10.93
2019-03-28T19:19:06.583Z,11.40
2019-03-28T19:21:37.200Z,9.90
2019-03-28T19:24:07.755Z,10.93
2019-03-28T19:26:38.425Z,10.53
2019-03-28T19:29:08.976Z,10.30
2019-03-28T19:31:39.596Z,10.60
2019-03-28T19:34:10.162Z,10.65
2019-03-28T19:36:40.746Z,11.40
2019-03-28T19:39:12.050Z,9.70
2019-03-28T19:41:42.655Z,9.93
2019-03-28T19:44:13.615Z,9.70
2019-03-28T19:46:44.204Z,11.10
2019-03-28T19:49:14.790Z,10.93
2019-03-28T19:51:47.652Z,11.15
2019-03-28T19:54:17.992Z,10.23
2019-03-28T19:56:48.606Z,10.00
2019-03-28T19:59:19.184Z,9.20
2019-03-28T20:01:49.921Z,10.40
2019-03-28T20:04:20.725Z,10.53
2019-03-28T20:06:51.558Z,10.88
2019-03-28T20:09:22.173Z,11.15
2019-03-28T20:11:52.793Z,9.70
2019-03-28T20:14:23.503Z,9.58
2019-03-28T20:16:54.101Z,9.03
2019-03-28T20:19:24.658Z,9.30
2019-03-28T20:21:55.380Z,9.53
2019-03-28T20:24:25.967Z,10.10
2019-03-28T20:26:56.603Z,10.18
2019-03-28T20:29:27.260Z,8.30
2019-03-28T20:31:58.962Z,9.05
2019-03-28T20:34:29.982Z,9.40
2019-03-28T20:37:01.020Z,9.50
2019-03-28T20:39:32.824Z,9.38
2019-03-28T20:42:03.672Z,10.93
2019-03-28T20:44:35.311Z,8.68
2019-03-28T20:47:05.954Z,8.25
2019-03-28T20:49:36.651Z,8.93
2019-03-28T20:52:09.413Z,8.78
2019-03-28T20:54:39.613Z,8.70
2019-03-28T20:57:10.247Z,12.60
2019-03-28T20:59:40.930Z,12.68
2019-03-28T21:02:11.579Z,9.38
2019-03-28T21:04:42.244Z,9.88
2019-03-28T21:07:14.566Z,8.68
2019-03-28T21:09:45.324Z,8.60
2019-03-28T21:12:15.968Z,8.08
2019-03-28T21:14:46.650Z,9.80
2019-03-28T21:17:17.288Z,8.78
2019-03-28T21:19:47.906Z,10.10
2019-03-28T21:22:18.600Z,9.18
2019-03-28T21:24:49.212Z,8.73
2019-03-28T21:27:20.788Z,9.48
2019-03-28T21:29:51.622Z,8.50
2019-03-28T21:32:22.251Z,9.85
2019-03-28T21:34:56.118Z,7.72
2019-03-28T21:37:25.241Z,8.25
2019-03-28T21:39:55.832Z,8.13
2019-03-28T21:42:26.417Z,8.20
2019-03-28T21:44:58.469Z,7.95
2019-03-28T21:47:29.334Z,8.60
2019-03-28T21:50:01.060Z,8.25
2019-03-28T21:52:32.243Z,8.30
2019-03-28T21:55:03.940Z,8.03
2019-03-28T21:57:35.591Z,7.33
2019-03-28T22:00:08.175Z,8.95
2019-03-28T22:02:38.827Z,8.35
2019-03-28T22:05:09.679Z,7.80
2019-03-28T22:07:40.416Z,8.90
2019-03-28T22:10:11.891Z,8.25
2019-03-28T22:12:42.470Z,8.75
2019-03-28T22:15:13.216Z,8.95
2019-03-28T22:17:43.790Z,8.20
2019-03-28T22:20:14.541Z,8.25
2019-03-28T22:22:45.260Z,9.05
2019-03-28T22:25:15.815Z,8.70
2019-03-28T22:27:47.574Z,9.48
2019-03-28T22:30:18.405Z,8.33
2019-03-28T22:32:50.004Z,8.68
2019-03-28T22:35:20.694Z,8.30
2019-03-28T22:37:51.261Z,8.43
2019-03-28T22:40:21.891Z,7.67
2019-03-28T22:42:52.444Z,7.97
2019-03-28T22:45:22.986Z,8.38
2019-03-28T22:47:53.650Z,8.70
2019-03-28T22:50:24.284Z,8.58
2019-03-28T22:52:55.033Z,8.60
2019-03-28T22:55:25.587Z,8.80
2019-03-28T22:57:56.218Z,8.90
2019-03-28T23:00:40.878Z,8.10
2019-03-28T23:03:13.374Z,8.20
2019-03-28T23:05:43.994Z,8.28
2019-03-28T23:08:16.407Z,8.83
2019-03-28T23:10:47.956Z,8.68
2019-03-28T23:13:19.867Z,8.48
2019-03-28T23:15:52.068Z,7.90
2019-03-28T23:18:22.755Z,9.13
2019-03-28T23:20:53.310Z,7.72
2019-03-28T23:23:23.899Z,8.30
2019-03-28T23:25:54.592Z,8.73
2019-03-28T23:28:25.316Z,8.48
2019-03-28T23:30:55.902Z,8.03
2019-03-28T23:33:26.563Z,8.00
2019-03-28T23:35:57.208Z,8.63
2019-03-28T23:38:27.787Z,8.23
2019-03-28T23:40:58.335Z,8.78
2019-03-28T23:43:28.947Z,8.63
2019-03-28T23:45:59.507Z,8.23
2019-03-28T23:48:30.135Z,8.75
2019-03-28T23:51:00.685Z,7.85
2019-03-28T23:53:31.283Z,8.70
2019-03-28T23:56:01.974Z,9.43
2019-03-28T23:58:32.598Z,9.15
